Date,TemperatureHighF,TemperatureAvgF,TemperatureLowF,DewpointHighF,DewpointAvgF,DewpointLowF,HumidityHigh,HumidityAvg,HumidityLow,PressureMaxIn,PressureMinIn,WindSpeedMaxMPH,WindSpeedAvgMPH,GustSpeedMaxMPH,PrecipitationSumIn
2013-3-1,61,56,47,17,11,6,21,17,14,0.00,40.00,18,12,30,0.00
2013-3-2,71,58,50,26,19,15,38,23,14,0.00,40.00,11,6,19,0.00
2013-3-3,60,52,40,39,22,14,96,34,20,0.00,40.00,17,11,30,0.00
2013-3-4,56,46,38,42,38,31,99,76,54,0.00,40.00,15,7,26,0.00
2013-3-5,60,50,40,46,36,25,98,62,34,0.00,40.00,12,5,23,0.00
2013-3-6,49,41,36,39,37,35,99,87,66,0.00,40.00,15,10,25,0.00
2013-3-7,42,39,37,41,37,33,99,93,74,0.00,40.00,14,9,27,0.00
2013-3-8,37,33,31,36,33,31,100,99,95,0.00,40.00,19,12,32,0.00
2013-3-9,39,36,32,38,35,31,100,97,83,0.00,40.00,17,9,29,0.00
2013-3-10,59,47,36,38,26,16,88,47,20,0.00,40.00,10,4,19,0.00
2013-3-11,65,54,43,37,22,9,72,31,15,0.00,40.00,10,5,17,0.00
2013-3-12,67,57,42,31,21,13,64,27,16,0.00,40.00,15,6,27,0.00
2013-3-13,72,63,54,27,22,18,35,21,13,0.00,40.00,15,7,24,0.00
2013-3-14,76,65,55,41,27,22,50,25,14,0.00,40.00,14,5,23,0.00
2013-3-15,73,64,54,46,34,26,67,34,19,0.00,40.00,12,6,18,0.00
2013-3-16,67,58,51,46,25,7,75,31,13,0.00,40.00,12,8,19,0.00
2013-3-17,69,56,47,49,34,24,90,47,21,0.00,40.00,9,6,16,0.00
2013-3-18,63,54,47,47,34,23,87,50,23,0.00,40.00,9,6,15,0.00
2013-3-19,62,53,44,44,36,27,87,53,38,0.00,40.00,12,7,23,0.00
2013-3-20,63,55,47,41,37,31,71,52,37,0.00,40.00,15,8,26,0.00
2013-3-21,61,51,45,46,40,32,97,66,34,0.00,40.00,13,8,23,0.00
2013-3-22,64,51,39,49,39,15,98,71,15,0.00,40.00,11,7,18,0.00
2013-3-23,62,53,42,39,18,8,74,28,13,0.00,40.00,13,6,22,0.00
2013-3-24,66,52,40,45,28,12,84,46,14,0.00,40.00,8,3,14,0.00
2013-3-25,69,57,43,44,30,16,70,38,16,0.00,40.00,8,3,15,0.00
2013-3-26,62,55,48,44,30,16,76,41,17,0.00,40.00,12,8,20,0.00
2013-3-27,59,51,45,43,30,16,89,47,26,0.00,40.00,13,8,25,0.00
2013-3-28,64,55,46,44,36,24,77,52,30,0.00,40.00,10,6,18,0.00
2013-3-29,68,58,44,51,38,29,90,52,26,0.00,40.00,9,4,14,0.00
2013-3-30,63,56,48,47,40,-100,88,60,39,0.00,40.00,10,6,18,0.00
2013-3-31,55,48,43,45,40,28,96,75,48,0.00,40.00,15,10,27,0.00